Terminal Aerodrome Forecast
Issued by NWS

Home | Current Version | Previous Version | Text Only | Print | Product List | Glossary On
Versions: 1 2 3 4 5 6 7 8 9 10 11 12 13
000
FTUS44 KBMX 201140
TAFEET
TAF
KEET 201140Z 2012/2112 00000KT P6SM FEW300
     FM201500 09005KT P6SM FEW300
     FM210000 00000KT P6SM SCT300=

USA.gov is the U.S. government's official web portal to all federal, state and local government web resources and services.